Time,TemperatureF,DewpointF,PressureIn,WindDirection,WindDirectionDegrees,WindSpeedMPH,WindSpeedGustMPH,Humidity,HourlyPrecipIn,Conditions,Clouds,dailyrainin,SoftwareType,DateUTC
2013-03-07 00:00:00,38.2,27.9,30.03,NNE,22,2.0,7.0,66,0.00,,SKC,0.00,VWS V14.00,2013-03-07 05:00:00,
2013-03-07 00:05:00,38.1,27.8,30.03,North,360,1.0,7.0,66,0.00,,SKC,0.00,VWS V14.00,2013-03-07 05:05:00,
2013-03-07 00:10:00,38.1,27.8,30.03,NNE,12,3.0,7.0,66,0.00,,SKC,0.00,VWS V14.00,2013-03-07 05:10:00,
2013-03-07 00:15:00,38.0,27.7,30.03,North,5,3.0,8.0,66,0.00,,SKC,0.00,VWS V14.00,2013-03-07 05:15:00,
2013-03-07 00:20:00,38.0,27.7,30.03,NNE,23,2.0,8.0,66,0.00,,SKC,0.00,VWS V14.00,2013-03-07 05:20:00,
2013-03-07 00:25:00,38.0,27.7,30.04,North,360,2.0,7.0,66,0.00,,SKC,0.00,VWS V14.00,2013-03-07 05:25:00,
2013-03-07 00:30:00,37.9,27.9,30.04,North,355,4.0,7.0,67,0.00,,SKC,0.00,VWS V14.00,2013-03-07 05:30:00,
2013-03-07 00:35:00,37.8,27.8,30.05,NNE,17,3.0,7.0,67,0.00,,SKC,0.00,VWS V14.00,2013-03-07 05:35:00,
2013-03-07 00:40:00,37.7,27.8,30.05,NNE,17,2.0,7.0,67,0.00,,SKC,0.00,VWS V14.00,2013-03-07 05:40:00,
2013-03-07 00:45:00,37.6,27.6,30.05,NNE,17,1.0,7.0,67,0.00,,SKC,0.00,VWS V14.00,2013-03-07 05:45:00,
2013-03-07 00:50:00,37.3,28.1,30.05,NNE,17,1.0,7.0,69,0.00,,SKC,0.00,VWS V14.00,2013-03-07 05:50:00,
2013-03-07 00:55:00,37.0,28.1,30.05,NNE,17,2.0,3.0,70,0.00,,SKC,0.00,VWS V14.00,2013-03-07 05:55:00,
2013-03-07 01:00:00,36.9,28.0,30.05,NNW,334,1.0,8.0,70,0.00,,SKC,0.00,VWS V14.00,2013-03-07 06:00:00,
2013-03-07 01:05:00,36.8,28.0,30.05,NNW,335,2.0,8.0,70,0.00,,SKC,0.00,VWS V14.00,2013-03-07 06:05:00,
2013-03-07 01:10:00,36.9,27.7,30.05,NNW,342,2.0,8.0,69,0.00,,SKC,0.00,VWS V14.00,2013-03-07 06:10:00,
2013-03-07 01:15:00,36.9,27.7,30.05,NNW,342,5.0,8.0,69,0.00,,SKC,0.00,VWS V14.00,2013-03-07 06:15:00,
2013-03-07 01:20:00,36.9,27.3,30.05,NNW,344,2.0,8.0,68,0.00,,SKC,0.00,VWS V14.00,2013-03-07 06:20:00,
2013-03-07 01:25:00,36.9,27.3,30.05,NNW,343,4.0,5.0,68,0.00,,SKC,0.00,VWS V14.00,2013-03-07 06:25:00,
2013-03-07 01:30:00,37.0,27.4,30.05,NNW,344,4.0,5.0,68,0.00,,SKC,0.00,VWS V14.00,2013-03-07 06:30:00,
2013-03-07 01:35:00,37.0,27.4,30.05,NNW,345,0.0,5.0,68,0.00,,SKC,0.00,VWS V14.00,2013-03-07 06:35:00,
2013-03-07 01:40:00,36.9,27.3,30.05,NNW,345,4.0,5.0,68,0.00,,SKC,0.00,VWS V14.00,2013-03-07 06:40:00,
2013-03-07 01:45:00,36.7,27.9,30.05,NNW,345,1.0,5.0,70,0.00,,SKC,0.00,VWS V14.00,2013-03-07 06:45:00,
2013-03-07 01:50:00,36.3,27.8,30.05,NNW,345,0.0,5.0,71,0.00,,SKC,0.00,VWS V14.00,2013-03-07 06:50:00,
2013-03-07 01:55:00,36.0,27.5,30.05,NNW,345,0.0,0.0,71,0.00,,SKC,0.00,VWS V14.00,2013-03-07 06:55:00,
2013-03-07 02:00:00,35.8,27.7,30.04,NNW,345,0.0,1.0,72,0.00,,SKC,0.00,VWS V14.00,2013-03-07 07:00:00,
2013-03-07 02:05:00,35.6,27.5,30.04,NNW,345,0.0,1.0,72,0.00,,SKC,0.00,VWS V14.00,2013-03-07 07:05:00,
2013-03-07 02:10:00,35.5,27.4,30.04,NNW,345,0.0,1.0,72,0.00,,SKC,0.00,VWS V14.00,2013-03-07 07:10:00,
2013-03-07 02:15:00,35.3,27.2,30.04,NNW,345,0.0,2.0,72,0.00,,SKC,0.00,VWS V14.00,2013-03-07 07:15:00,
2013-03-07 02:20:00,35.3,27.5,30.04,NNW,345,1.0,4.0,73,0.00,,SKC,0.00,VWS V14.00,2013-03-07 07:20:00,
2013-03-07 02:25:00,35.3,27.5,30.04,NNW,345,4.0,4.0,73,0.00,,SKC,0.00,VWS V14.00,2013-03-07 07:25:00,
2013-03-07 02:30:00,35.5,27.7,30.04,North,355,0.0,5.0,73,0.00,,SKC,0.00,VWS V14.00,2013-03-07 07:30:00,
2013-03-07 02:35:00,35.7,27.9,30.04,North,355,4.0,6.0,73,0.00,,SKC,0.00,VWS V14.00,2013-03-07 07:35:00,
2013-03-07 02:40:00,36.1,28.0,30.04,North,11,0.0,6.0,72,0.00,,SKC,0.00,VWS V14.00,2013-03-07 07:40:00,
2013-03-07 02:45:00,36.4,28.2,30.04,North,355,2.0,6.0,72,0.00,,SKC,0.00,VWS V14.00,2013-03-07 07:45:00,
2013-03-07 02:50:00,36.6,28.1,30.04,NNW,344,2.0,6.0,71,0.00,,SKC,0.00,VWS V14.00,2013-03-07 07:50:00,
2013-03-07 02:55:00,36.7,28.2,30.05,NW,324,2.0,4.0,71,0.00,,SKC,0.00,VWS V14.00,2013-03-07 07:55:00,
2013-03-07 03:00:00,36.7,28.2,30.05,NNW,347,2.0,7.0,71,0.00,,SKC,0.00,VWS V14.00,2013-03-07 08:00:00,
2013-03-07 03:05:00,36.8,28.3,30.05,NNW,346,1.0,7.0,71,0.00,,SKC,0.00,VWS V14.00,2013-03-07 08:05:00,
2013-03-07 03:10:00,36.7,28.2,30.05,NNW,346,0.0,7.0,71,0.00,,SKC,0.00,VWS V14.00,2013-03-07 08:10:00,
2013-03-07 03:15:00,36.5,28.0,30.05,NNW,346,2.0,7.0,71,0.00,,SKC,0.00,VWS V14.00,2013-03-07 08:15:00,
2013-03-07 03:20:00,36.4,27.9,30.05,NNW,346,0.0,7.0,71,0.00,,SKC,0.00,VWS V14.00,2013-03-07 08:20:00,
2013-03-07 03:25:00,36.3,27.8,30.05,NNW,346,2.0,4.0,71,0.00,,SKC,0.00,VWS V14.00,2013-03-07 08:25:00,
2013-03-07 03:30:00,36.1,27.6,30.05,NNW,346,1.0,5.0,71,0.00,,SKC,0.00,VWS V14.00,2013-03-07 08:30:00,
2013-03-07 03:35:00,36.0,27.9,30.05,NNW,344,2.0,6.0,72,0.00,,SKC,0.00,VWS V14.00,2013-03-07 08:35:00,
2013-03-07 03:40:00,35.9,27.8,30.06,NNW,344,4.0,6.0,72,0.00,,SKC,0.00,VWS V14.00,2013-03-07 08:40:00,
2013-03-07 03:45:00,35.9,27.8,30.05,NNW,344,2.0,6.0,72,0.00,,SKC,0.00,VWS V14.00,2013-03-07 08:45:00,
2013-03-07 03:50:00,35.7,27.6,30.05,NNW,342,4.0,6.0,72,0.00,,SKC,0.00,VWS V14.00,2013-03-07 08:50:00,
2013-03-07 03:55:00,35.6,27.5,30.06,NNW,342,2.0,4.0,72,0.00,,SKC,0.00,VWS V14.00,2013-03-07 08:55:00,
2013-03-07 04:00:00,35.5,27.4,30.05,North,5,2.0,5.0,72,0.00,,SKC,0.00,VWS V14.00,2013-03-07 09:00:00,
2013-03-07 04:05:00,35.5,27.4,30.06,North,5,2.0,5.0,72,0.00,,SKC,0.00,VWS V14.00,2013-03-07 09:05:00,
2013-03-07 04:10:00,35.6,27.5,30.06,North,5,2.0,5.0,72,0.00,,SKC,0.00,VWS V14.00,2013-03-07 09:10:00,
2013-03-07 04:15:00,35.5,27.4,30.06,North,5,1.0,5.0,72,0.00,,SKC,0.00,VWS V14.00,2013-03-07 09:15:00,
2013-03-07 04:21:00,35.4,27.3,30.06,North,5,0.0,5.0,72,0.00,,SKC,0.00,VWS V14.00,2013-03-07 09:21:00,
2013-03-07 04:26:00,35.3,27.5,30.06,North,5,1.0,3.0,73,0.00,,SKC,0.00,VWS V14.00,2013-03-07 09:26:00,
2013-03-07 04:30:00,35.8,27.7,30.07,NNW,348,0.0,7.0,72,0.00,,SKC,0.00,VWS V14.00,2013-03-07 09:30:00,
2013-03-07 04:31:00,35.2,27.4,30.06,North,5,1.0,4.0,73,0.00,,SKC,0.00,VWS V14.00,2013-03-07 09:31:00,
2013-03-07 04:36:00,35.1,27.3,30.06,North,5,3.0,4.0,73,0.00,,SKC,0.00,VWS V14.00,2013-03-07 09:36:00,
2013-03-07 04:41:00,35.1,27.3,30.06,North,5,1.0,4.0,73,0.00,,SKC,0.00,VWS V14.00,2013-03-07 09:41:00,
2013-03-07 04:46:00,35.0,27.2,30.06,North,5,0.0,4.0,73,0.00,,SKC,0.00,VWS V14.00,2013-03-07 09:46:00,
2013-03-07 04:51:00,34.9,27.5,30.07,North,5,0.0,4.0,74,0.00,,SKC,0.00,VWS V14.00,2013-03-07 09:51:00,
2013-03-07 04:56:00,34.8,27.4,30.06,North,5,2.0,4.0,74,0.00,,SKC,0.00,VWS V14.00,2013-03-07 09:56:00,
2013-03-07 05:00:00,36.3,27.5,30.07,NNW,346,2.0,8.0,70,0.00,,SKC,0.00,VWS V14.00,2013-03-07 10:00:00,
2013-03-07 05:01:00,34.9,27.5,30.06,North,5,0.0,4.0,74,0.00,,SKC,0.00,VWS V14.00,2013-03-07 10:01:00,
2013-03-07 05:06:00,35.1,27.7,30.06,North,5,2.0,4.0,74,0.00,,SKC,0.00,VWS V14.00,2013-03-07 10:06:00,
2013-03-07 05:11:00,35.3,27.5,30.06,NNW,344,2.0,7.0,73,0.00,,SKC,0.00,VWS V14.00,2013-03-07 10:11:00,
2013-03-07 05:16:00,35.6,27.5,30.06,NNW,346,4.0,7.0,72,0.00,,SKC,0.00,VWS V14.00,2013-03-07 10:16:00,
2013-03-07 05:21:00,35.7,27.6,30.06,NNW,348,1.0,7.0,72,0.00,,SKC,0.00,VWS V14.00,2013-03-07 10:21:00,
2013-03-07 05:26:00,35.8,27.7,30.07,NNW,348,1.0,2.0,72,0.00,,SKC,0.00,VWS V14.00,2013-03-07 10:26:00,
2013-03-07 05:30:00,36.5,27.7,30.07,North,351,4.0,8.0,70,0.00,,SKC,0.00,VWS V14.00,2013-03-07 10:30:00,
2013-03-07 05:31:00,35.8,27.7,30.07,NNW,348,4.0,4.0,72,0.00,,SKC,0.00,VWS V14.00,2013-03-07 10:31:00,
2013-03-07 05:36:00,35.9,27.8,30.07,NNW,346,5.0,6.0,72,0.00,,SKC,0.00,VWS V14.00,2013-03-07 10:36:00,
2013-03-07 05:41:00,36.0,27.9,30.07,NNW,342,2.0,7.0,72,0.00,,SKC,0.00,VWS V14.00,2013-03-07 10:41:00,
2013-03-07 05:46:00,36.1,27.6,30.07,NNW,346,6.0,7.0,71,0.00,,SKC,0.00,VWS V14.00,2013-03-07 10:46:00,
2013-03-07 05:51:00,36.3,27.8,30.07,NNW,346,1.0,8.0,71,0.00,,SKC,0.00,VWS V14.00,2013-03-07 10:51:00,
2013-03-07 05:56:00,36.4,27.9,30.07,North,349,5.0,7.0,71,0.00,,SKC,0.00,VWS V14.00,2013-03-07 10:56:00,
2013-03-07 06:00:00,36.9,27.0,30.08,North,355,5.0,12.0,67,0.00,,SKC,0.00,VWS V14.00,2013-03-07 11:00:00,
2013-03-07 06:01:00,36.5,27.7,30.07,NNW,348,2.0,7.0,70,0.00,,SKC,0.00,VWS V14.00,2013-03-07 11:01:00,
2013-03-07 06:06:00,36.6,27.8,30.07,NNW,339,6.0,8.0,70,0.00,,SKC,0.00,VWS V14.00,2013-03-07 11:06:00,
2013-03-07 06:11:00,36.6,27.8,30.07,North,355,1.0,8.0,70,0.00,,SKC,0.00,VWS V14.00,2013-03-07 11:11:00,
2013-03-07 06:16:00,36.6,27.8,30.07,North,360,3.0,8.0,70,0.00,,SKC,0.00,VWS V14.00,2013-03-07 11:16:00,
2013-03-07 06:21:00,36.6,27.8,30.07,North,355,2.0,8.0,70,0.00,,SKC,0.00,VWS V14.00,2013-03-07 11:21:00,
2013-03-07 06:26:00,36.4,27.6,30.07,North,355,2.0,7.0,70,0.00,,SKC,0.00,VWS V14.00,2013-03-07 11:26:00,
2013-03-07 06:30:00,36.9,27.0,30.09,North,355,6.0,11.0,67,0.00,,SKC,0.00,VWS V14.00,2013-03-07 11:30:00,
2013-03-07 06:31:00,36.4,27.6,30.07,North,355,4.0,9.0,70,0.00,,SKC,0.00,VWS V14.00,2013-03-07 11:31:00,
2013-03-07 06:36:00,36.6,27.4,30.07,North,355,4.0,9.0,69,0.00,,SKC,0.00,VWS V14.00,2013-03-07 11:36:00,
2013-03-07 06:41:00,36.6,27.4,30.07,North,360,8.0,9.0,69,0.00,,SKC,0.00,VWS V14.00,2013-03-07 11:41:00,
2013-03-07 06:46:00,36.8,27.2,30.07,North,360,4.0,10.0,68,0.00,,SKC,0.00,VWS V14.00,2013-03-07 11:46:00,
2013-03-07 06:51:00,36.9,27.3,30.08,NW,313,6.0,10.0,68,0.00,,SKC,0.00,VWS V14.00,2013-03-07 11:51:00,
2013-03-07 06:56:00,36.9,27.0,30.08,NNW,340,9.0,9.0,67,0.00,,SKC,0.00,VWS V14.00,2013-03-07 11:56:00,
2013-03-07 07:00:00,37.1,26.1,30.09,NW,321,7.0,13.0,64,0.00,,SKC,0.00,VWS V14.00,2013-03-07 12:00:00,
2013-03-07 07:01:00,36.9,27.0,30.08,North,360,5.0,9.0,67,0.00,,SKC,0.00,VWS V14.00,2013-03-07 12:01:00,
2013-03-07 07:06:00,36.8,26.9,30.08,NW,315,5.0,9.0,67,0.00,,SKC,0.00,VWS V14.00,2013-03-07 12:06:00,
2013-03-07 07:11:00,36.8,26.9,30.08,North,360,3.0,9.0,67,0.00,,SKC,0.00,VWS V14.00,2013-03-07 12:11:00,
2013-03-07 07:16:00,36.8,26.5,30.08,North,349,5.0,11.0,66,0.00,,SKC,0.00,VWS V14.00,2013-03-07 12:16:00,
2013-03-07 07:21:00,36.9,27.0,30.08,North,355,6.0,11.0,67,0.00,,SKC,0.00,VWS V14.00,2013-03-07 12:21:00,
2013-03-07 07:26:00,36.9,26.2,30.09,North,360,7.0,12.0,65,0.00,,SKC,0.00,VWS V14.00,2013-03-07 12:26:00,
2013-03-07 07:30:00,37.6,26.9,30.11,North,360,5.0,9.0,65,0.00,,SKC,0.00,VWS V14.00,2013-03-07 12:30:00,
2013-03-07 07:31:00,37.0,26.3,30.09,NNW,344,6.0,13.0,65,0.00,,SKC,0.00,VWS V14.00,2013-03-07 12:31:00,
2013-03-07 07:36:00,37.0,26.7,30.09,NW,325,8.0,13.0,66,0.00,,SKC,0.00,VWS V14.00,2013-03-07 12:36:00,
2013-03-07 07:41:00,37.0,26.7,30.09,NW,313,6.0,13.0,66,0.00,,SKC,0.00,VWS V14.00,2013-03-07 12:41:00,
2013-03-07 07:46:00,37.0,26.7,30.09,NNW,329,5.0,13.0,66,0.00,,SKC,0.00,VWS V14.00,2013-03-07 12:46:00,
2013-03-07 07:51:00,37.0,26.3,30.09,North,355,8.0,13.0,65,0.00,,SKC,0.00,VWS V14.00,2013-03-07 12:51:00,
2013-03-07 07:56:00,37.1,26.4,30.09,NNW,342,6.0,8.0,65,0.00,,SKC,0.00,VWS V14.00,2013-03-07 12:56:00,
2013-03-07 08:00:00,38.3,27.2,30.12,NNE,15,0.0,13.0,64,0.00,,SKC,0.00,VWS V14.00,2013-03-07 13:00:00,
2013-03-07 08:01:00,37.2,26.5,30.10,North,355,8.0,8.0,65,0.00,,SKC,0.00,VWS V14.00,2013-03-07 13:01:00,
2013-03-07 08:06:00,37.2,26.5,30.10,NNW,342,7.0,9.0,65,0.00,,SKC,0.00,VWS V14.00,2013-03-07 13:06:00,
2013-03-07 08:11:00,37.3,26.6,30.10,North,355,4.0,9.0,65,0.00,,SKC,0.00,VWS V14.00,2013-03-07 13:11:00,
2013-03-07 08:16:00,37.4,27.1,30.11,NNW,342,5.0,9.0,66,0.00,,SKC,0.00,VWS V14.00,2013-03-07 13:16:00,
2013-03-07 08:21:00,37.5,27.2,30.10,North,360,2.0,9.0,66,0.00,,SKC,0.00,VWS V14.00,2013-03-07 13:21:00,
2013-03-07 08:26:00,37.7,27.0,30.11,NNW,342,8.0,13.0,65,0.00,,SKC,0.00,VWS V14.00,2013-03-07 13:26:00,
2013-03-07 08:30:00,38.5,27.0,30.13,NW,311,7.0,14.0,63,0.01,,SKC,0.01,VWS V14.00,2013-03-07 13:30:00,
2013-03-07 08:31:00,37.8,26.7,30.11,NNE,17,3.0,13.0,64,0.00,,SKC,0.00,VWS V14.00,2013-03-07 13:31:00,
2013-03-07 08:36:00,37.9,27.2,30.11,NNE,13,6.0,13.0,65,0.00,,SKC,0.00,VWS V14.00,2013-03-07 13:36:00,
2013-03-07 08:41:00,38.0,26.9,30.11,North,5,3.0,13.0,64,0.00,,SKC,0.00,VWS V14.00,2013-03-07 13:41:00,
2013-03-07 08:46:00,38.1,26.6,30.12,North,355,8.0,13.0,63,0.00,,SKC,0.00,VWS V14.00,2013-03-07 13:46:00,
2013-03-07 08:51:00,38.2,27.1,30.12,North,11,3.0,13.0,64,0.00,,SKC,0.00,VWS V14.00,2013-03-07 13:51:00,
2013-03-07 08:56:00,38.3,26.8,30.12,NNW,333,6.0,11.0,63,0.00,,SKC,0.00,VWS V14.00,2013-03-07 13:56:00,
2013-03-07 09:00:00,38.9,27.4,30.14,NNE,14,5.0,13.0,63,0.01,,SKC,0.01,VWS V14.00,2013-03-07 14:00:00,
2013-03-07 09:01:00,38.3,26.8,30.12,North,350,5.0,13.0,63,0.01,,SKC,0.01,VWS V14.00,2013-03-07 14:01:00,
2013-03-07 09:06:00,38.3,26.8,30.13,WNW,301,11.0,13.0,63,0.01,,SKC,0.01,VWS V14.00,2013-03-07 14:06:00,
2013-03-07 09:11:00,38.3,26.8,30.12,NW,312,8.0,13.0,63,0.01,,SKC,0.01,VWS V14.00,2013-03-07 14:11:00,
2013-03-07 09:16:00,38.4,27.3,30.13,NNW,342,7.0,14.0,64,0.01,,SKC,0.01,VWS V14.00,2013-03-07 14:16:00,
2013-03-07 09:21:00,38.5,27.0,30.13,North,355,6.0,14.0,63,0.01,,SKC,0.01,VWS V14.00,2013-03-07 14:21:00,
2013-03-07 09:26:00,38.5,27.0,30.13,North,355,6.0,9.0,63,0.01,,SKC,0.01,VWS V14.00,2013-03-07 14:26:00,
2013-03-07 09:30:00,39.1,27.2,30.14,NNW,333,9.0,17.0,62,0.01,,SKC,0.01,VWS V14.00,2013-03-07 14:30:00,
2013-03-07 09:31:00,38.7,27.2,30.13,North,360,3.0,13.0,63,0.01,,SKC,0.01,VWS V14.00,2013-03-07 14:31:00,
2013-03-07 09:36:00,38.7,27.6,30.13,NNW,348,4.0,13.0,64,0.01,,SKC,0.01,VWS V14.00,2013-03-07 14:36:00,
2013-03-07 09:41:00,38.7,27.2,30.13,North,355,5.0,13.0,63,0.01,,SKC,0.01,VWS V14.00,2013-03-07 14:41:00,
2013-03-07 09:46:00,38.8,27.7,30.14,NNW,338,7.0,13.0,64,0.01,,SKC,0.01,VWS V14.00,2013-03-07 14:46:00,
2013-03-07 09:51:00,38.9,27.8,30.14,North,5,4.0,13.0,64,0.01,,SKC,0.01,VWS V14.00,2013-03-07 14:51:00,
2013-03-07 09:56:00,38.9,27.4,30.14,North,349,4.0,11.0,63,0.01,,SKC,0.01,VWS V14.00,2013-03-07 14:56:00,
2013-03-07 10:00:00,39.7,27.0,30.14,NNW,338,10.0,14.0,60,0.00,,SKC,0.01,VWS V14.00,2013-03-07 15:00:00,
2013-03-07 10:02:00,38.9,27.4,30.14,North,11,7.0,11.0,63,0.01,,SKC,0.01,VWS V14.00,2013-03-07 15:02:00,
2013-03-07 10:07:00,39.1,27.2,30.14,NW,315,9.0,14.0,62,0.01,,SKC,0.01,VWS V14.00,2013-03-07 15:07:00,
2013-03-07 10:12:00,39.1,27.2,30.14,NNW,327,6.0,14.0,62,0.01,,SKC,0.01,VWS V14.00,2013-03-07 15:12:00,
2013-03-07 10:17:00,39.0,26.7,30.14,WNW,295,15.0,15.0,61,0.01,,SKC,0.01,VWS V14.00,2013-03-07 15:17:00,
2013-03-07 10:22:00,39.1,27.6,30.14,WNW,302,7.0,17.0,63,0.01,,SKC,0.01,VWS V14.00,2013-03-07 15:22:00,
2013-03-07 10:27:00,39.1,26.8,30.14,NNW,340,7.0,14.0,61,0.00,,SKC,0.01,VWS V14.00,2013-03-07 15:27:00,
2013-03-07 10:30:00,40.3,27.1,30.14,NW,314,8.0,16.0,59,0.00,,SKC,0.01,VWS V14.00,2013-03-07 15:30:00,
2013-03-07 10:32:00,39.1,27.2,30.14,North,349,6.0,14.0,62,0.00,,SKC,0.01,VWS V14.00,2013-03-07 15:32:00,
2013-03-07 10:37:00,39.2,26.9,30.14,North,5,5.0,14.0,61,0.00,,SKC,0.01,VWS V14.00,2013-03-07 15:37:00,
2013-03-07 10:42:00,39.3,27.0,30.14,NNW,344,2.0,14.0,61,0.00,,SKC,0.01,VWS V14.00,2013-03-07 15:42:00,
2013-03-07 10:47:00,39.5,27.6,30.14,North,349,9.0,14.0,62,0.00,,SKC,0.01,VWS V14.00,2013-03-07 15:47:00,
2013-03-07 10:52:00,39.7,27.0,30.14,NNW,348,7.0,14.0,60,0.00,,SKC,0.01,VWS V14.00,2013-03-07 15:52:00,
2013-03-07 10:57:00,39.7,27.0,30.14,SSE,154,2.0,14.0,60,0.00,,SKC,0.01,VWS V14.00,2013-03-07 15:57:00,
2013-03-07 11:00:00,40.8,27.6,30.14,NNW,332,10.0,19.0,59,0.00,,SKC,0.01,VWS V14.00,2013-03-07 16:00:00,
2013-03-07 11:02:00,40.0,27.2,30.14,NW,318,7.0,14.0,60,0.00,,SKC,0.01,VWS V14.00,2013-03-07 16:02:00,
2013-03-07 11:07:00,40.2,27.4,30.14,North,360,2.0,14.0,60,0.00,,SKC,0.01,VWS V14.00,2013-03-07 16:07:00,
2013-03-07 11:12:00,40.4,27.6,30.14,NNW,342,9.0,14.0,60,0.00,,SKC,0.01,VWS V14.00,2013-03-07 16:12:00,
2013-03-07 11:17:00,40.4,26.8,30.14,NNW,348,7.0,14.0,58,0.00,,SKC,0.01,VWS V14.00,2013-03-07 16:17:00,
2013-03-07 11:22:00,40.3,27.1,30.14,North,355,6.0,16.0,59,0.00,,SKC,0.01,VWS V14.00,2013-03-07 16:22:00,
2013-03-07 11:27:00,40.4,28.0,30.14,North,351,5.0,13.0,61,0.00,,SKC,0.01,VWS V14.00,2013-03-07 16:27:00,
2013-03-07 11:30:00,42.2,28.5,30.13,NNW,338,8.0,14.0,58,0.00,,SKC,0.01,VWS V14.00,2013-03-07 16:30:00,
2013-03-07 11:32:00,40.5,26.9,30.14,NNW,346,6.0,13.0,58,0.00,,SKC,0.01,VWS V14.00,2013-03-07 16:32:00,
2013-03-07 11:37:00,40.4,27.2,30.14,NNW,336,2.0,13.0,59,0.00,,SKC,0.01,VWS V14.00,2013-03-07 16:37:00,
2013-03-07 11:42:00,40.6,27.4,30.14,NW,316,6.0,15.0,59,0.00,,SKC,0.01,VWS V14.00,2013-03-07 16:42:00,
2013-03-07 11:47:00,40.6,27.8,30.14,NNW,333,6.0,19.0,60,0.00,,SKC,0.01,VWS V14.00,2013-03-07 16:47:00,
2013-03-07 11:52:00,40.7,27.9,30.14,North,360,5.0,19.0,60,0.00,,SKC,0.01,VWS V14.00,2013-03-07 16:52:00,
2013-03-07 11:57:00,40.8,27.2,30.14,NW,324,7.0,14.0,58,0.00,,SKC,0.01,VWS V14.00,2013-03-07 16:57:00,
2013-03-07 12:00:00,44.1,28.5,30.12,NNW,339,6.0,17.0,54,0.00,,SKC,0.01,VWS V14.00,2013-03-07 17:00:00,
2013-03-07 12:02:00,41.4,28.2,30.14,NE,34,2.0,14.0,59,0.00,,SKC,0.01,VWS V14.00,2013-03-07 17:02:00,
2013-03-07 12:07:00,41.8,27.3,30.13,NNE,13,6.0,14.0,56,0.00,,SKC,0.01,VWS V14.00,2013-03-07 17:07:00,
2013-03-07 12:12:00,41.8,27.7,30.14,ENE,74,3.0,14.0,57,0.00,,SKC,0.01,VWS V14.00,2013-03-07 17:12:00,
2013-03-07 12:17:00,41.9,27.8,30.13,NW,313,4.0,14.0,57,0.00,,SKC,0.01,VWS V14.00,2013-03-07 17:17:00,
2013-03-07 12:22:00,42.0,28.3,30.13,NNE,13,8.0,14.0,58,0.00,,SKC,0.01,VWS V14.00,2013-03-07 17:22:00,
2013-03-07 12:27:00,42.5,27.9,30.13,WNW,296,9.0,12.0,56,0.00,,SKC,0.01,VWS V14.00,2013-03-07 17:27:00,
2013-03-07 12:30:00,44.8,28.7,30.11,NW,313,6.0,15.0,53,0.00,,SKC,0.01,VWS V14.00,2013-03-07 17:30:00,
2013-03-07 12:32:00,42.5,27.9,30.13,North,360,4.0,14.0,56,0.00,,SKC,0.01,VWS V14.00,2013-03-07 17:32:00,
2013-03-07 12:37:00,42.7,28.5,30.12,NNW,327,8.0,14.0,57,0.00,,SKC,0.01,VWS V14.00,2013-03-07 17:37:00,
2013-03-07 12:42:00,42.8,28.2,30.13,NNW,347,9.0,14.0,56,0.00,,SKC,0.01,VWS V14.00,2013-03-07 17:42:00,
2013-03-07 12:47:00,43.2,28.6,30.12,NNE,17,4.0,14.0,56,0.00,,SKC,0.01,VWS V14.00,2013-03-07 17:47:00,
2013-03-07 12:52:00,44.1,29.0,30.12,NW,304,14.0,17.0,55,0.00,,SKC,0.01,VWS V14.00,2013-03-07 17:52:00,
2013-03-07 12:57:00,44.1,28.1,30.12,North,355,8.0,14.0,53,0.00,,SKC,0.01,VWS V14.00,2013-03-07 17:57:00,
2013-03-07 13:00:00,45.2,28.2,30.09,NNW,339,7.0,19.0,51,0.00,,SKC,0.01,VWS V14.00,2013-03-07 18:00:00,
2013-03-07 13:02:00,44.1,28.1,30.11,NNW,331,7.0,15.0,53,0.00,,SKC,0.01,VWS V14.00,2013-03-07 18:02:00,
2013-03-07 13:07:00,44.2,28.6,30.11,WNW,293,9.0,15.0,54,0.00,,SKC,0.01,VWS V14.00,2013-03-07 18:07:00,
2013-03-07 13:12:00,44.5,28.9,30.10,WNW,294,7.0,15.0,54,0.00,,SKC,0.01,VWS V14.00,2013-03-07 18:12:00,
2013-03-07 13:17:00,44.7,28.6,30.11,NNW,328,6.0,15.0,53,0.00,,SKC,0.01,VWS V14.00,2013-03-07 18:17:00,
2013-03-07 13:22:00,44.7,28.2,30.10,NE,37,3.0,15.0,52,0.00,,SKC,0.01,VWS V14.00,2013-03-07 18:22:00,
2013-03-07 13:27:00,45.2,28.6,30.10,NW,315,10.0,19.0,52,0.00,,SKC,0.01,VWS V14.00,2013-03-07 18:27:00,
2013-03-07 13:30:00,46.5,28.4,30.10,NNW,331,11.0,32.0,49,0.00,,SKC,0.01,VWS V14.00,2013-03-07 18:30:00,
2013-03-07 13:32:00,45.3,27.8,30.10,North,360,5.0,19.0,50,0.00,,SKC,0.01,VWS V14.00,2013-03-07 18:32:00,
2013-03-07 13:37:00,45.1,28.5,30.10,NNW,331,7.0,19.0,52,0.00,,SKC,0.01,VWS V14.00,2013-03-07 18:37:00,
2013-03-07 13:42:00,45.2,28.2,30.10,NW,315,9.0,19.0,51,0.00,,SKC,0.01,VWS V14.00,2013-03-07 18:42:00,
2013-03-07 13:47:00,45.2,27.7,30.10,NNW,329,8.0,19.0,50,0.00,,SKC,0.01,VWS V14.00,2013-03-07 18:47:00,
2013-03-07 13:52:00,45.2,27.7,30.09,NW,321,6.0,19.0,50,0.00,,SKC,0.01,VWS V14.00,2013-03-07 18:52:00,
2013-03-07 13:57:00,45.6,28.5,30.09,North,355,9.0,32.0,51,0.00,,SKC,0.01,VWS V14.00,2013-03-07 18:57:00,
2013-03-07 14:00:00,46.7,28.6,30.10,NNW,346,5.0,18.0,49,0.00,,SKC,0.01,VWS V14.00,2013-03-07 19:00:00,
2013-03-07 14:02:00,45.8,28.7,30.09,NW,309,14.0,32.0,51,0.00,,SKC,0.01,VWS V14.00,2013-03-07 19:02:00,
2013-03-07 14:07:00,45.9,28.8,30.09,NNW,333,5.0,32.0,51,0.00,,SKC,0.01,VWS V14.00,2013-03-07 19:07:00,
2013-03-07 14:12:00,45.8,28.7,30.10,North,5,11.0,32.0,51,0.00,,SKC,0.01,VWS V14.00,2013-03-07 19:12:00,
2013-03-07 14:17:00,46.1,29.0,30.10,NW,323,10.0,32.0,51,0.00,,SKC,0.01,VWS V14.00,2013-03-07 19:17:00,
2013-03-07 14:22:00,46.4,28.8,30.10,NNW,337,8.0,32.0,50,0.00,,SKC,0.01,VWS V14.00,2013-03-07 19:22:00,
2013-03-07 14:27:00,46.5,28.4,30.10,NNW,331,8.0,13.0,49,0.00,,SKC,0.01,VWS V14.00,2013-03-07 19:27:00,
2013-03-07 14:30:00,46.0,27.9,30.10,NW,306,9.0,19.0,49,0.00,,SKC,0.01,VWS V14.00,2013-03-07 19:30:00,
2013-03-07 14:32:00,46.8,29.2,30.10,North,360,5.0,14.0,50,0.00,,SKC,0.01,VWS V14.00,2013-03-07 19:32:00,
2013-03-07 14:37:00,46.7,27.6,30.10,North,355,8.0,16.0,47,0.00,,SKC,0.01,VWS V14.00,2013-03-07 19:37:00,
2013-03-07 14:42:00,46.4,27.3,30.10,NNW,342,13.0,17.0,47,0.00,,SKC,0.01,VWS V14.00,2013-03-07 19:42:00,
2013-03-07 14:47:00,46.3,27.7,30.10,North,5,7.0,18.0,48,0.00,,SKC,0.01,VWS V14.00,2013-03-07 19:47:00,
2013-03-07 14:52:00,46.6,27.5,30.10,NW,323,7.0,18.0,47,0.00,,SKC,0.01,VWS V14.00,2013-03-07 19:52:00,
2013-03-07 14:57:00,46.9,27.7,30.10,NW,318,10.0,15.0,47,0.00,,SKC,0.01,VWS V14.00,2013-03-07 19:57:00,
2013-03-07 15:00:00,45.5,27.5,30.12,NNW,342,7.0,19.0,49,0.00,,SKC,0.01,VWS V14.00,2013-03-07 20:00:00,
2013-03-07 15:02:00,46.8,27.6,30.11,North,360,11.0,16.0,47,0.00,,SKC,0.01,VWS V14.00,2013-03-07 20:02:00,
2013-03-07 15:07:00,46.8,27.6,30.10,NNW,342,7.0,16.0,47,0.00,,SKC,0.01,VWS V14.00,2013-03-07 20:07:00,
2013-03-07 15:12:00,46.7,27.6,30.11,NW,325,12.0,19.0,47,0.00,,SKC,0.01,VWS V14.00,2013-03-07 20:12:00,
2013-03-07 15:17:00,46.5,27.4,30.11,NNW,337,8.0,19.0,47,0.00,,SKC,0.01,VWS V14.00,2013-03-07 20:17:00,
2013-03-07 15:22:00,45.9,27.3,30.11,NW,305,6.0,19.0,48,0.00,,SKC,0.01,VWS V14.00,2013-03-07 20:22:00,
2013-03-07 15:27:00,46.0,26.9,30.11,North,11,6.0,16.0,47,0.00,,SKC,0.01,VWS V14.00,2013-03-07 20:27:00,
2013-03-07 15:30:00,46.1,27.0,30.12,North,5,9.0,16.0,47,0.00,,SKC,0.01,VWS V14.00,2013-03-07 20:30:00,
2013-03-07 15:32:00,46.3,27.2,30.11,NNW,344,8.0,16.0,47,0.00,,SKC,0.01,VWS V14.00,2013-03-07 20:32:00,
2013-03-07 15:37:00,46.0,26.9,30.11,North,5,11.0,19.0,47,0.00,,SKC,0.01,VWS V14.00,2013-03-07 20:37:00,
2013-03-07 15:42:00,46.2,27.6,30.11,NNE,15,7.0,19.0,48,0.00,,SKC,0.01,VWS V14.00,2013-03-07 20:42:00,
2013-03-07 15:47:00,46.1,27.5,30.11,NW,321,9.0,19.0,48,0.00,,SKC,0.01,VWS V14.00,2013-03-07 20:47:00,
2013-03-07 15:52:00,45.5,27.5,30.12,NNW,329,10.0,19.0,49,0.00,,SKC,0.01,VWS V14.00,2013-03-07 20:52:00,
2013-03-07 15:57:00,45.3,26.8,30.12,NNW,339,6.0,15.0,48,0.00,,SKC,0.01,VWS V14.00,2013-03-07 20:57:00,
2013-03-07 16:00:00,44.5,26.5,30.12,North,349,5.0,16.0,49,0.00,,SKC,0.01,VWS V14.00,2013-03-07 21:00:00,
2013-03-07 16:02:00,45.7,27.1,30.12,NNW,333,9.0,15.0,48,0.00,,SKC,0.01,VWS V14.00,2013-03-07 21:02:00,
2013-03-07 16:07:00,45.8,26.7,30.11,NW,316,9.0,15.0,47,0.00,,SKC,0.01,VWS V14.00,2013-03-07 21:07:00,
2013-03-07 16:12:00,45.6,27.1,30.12,NNW,346,8.0,16.0,48,0.00,,SKC,0.01,VWS V14.00,2013-03-07 21:12:00,
2013-03-07 16:17:00,45.8,27.2,30.11,NW,312,11.0,16.0,48,0.00,,SKC,0.01,VWS V14.00,2013-03-07 21:17:00,
2013-03-07 16:22:00,46.1,27.5,30.12,NW,313,8.0,16.0,48,0.00,,SKC,0.01,VWS V14.00,2013-03-07 21:22:00,
2013-03-07 16:27:00,45.8,26.2,30.12,NE,51,6.0,15.0,46,0.00,,SKC,0.01,VWS V14.00,2013-03-07 21:27:00,
2013-03-07 16:30:00,43.6,26.2,30.13,NNW,341,5.0,15.0,50,0.00,,SKC,0.01,VWS V14.00,2013-03-07 21:30:00,
2013-03-07 16:32:00,45.4,26.4,30.12,NNW,331,4.0,15.0,47,0.00,,SKC,0.01,VWS V14.00,2013-03-07 21:32:00,
2013-03-07 16:37:00,44.9,26.4,30.12,NNW,336,8.0,15.0,48,0.00,,SKC,0.01,VWS V14.00,2013-03-07 21:37:00,
2013-03-07 16:42:00,44.8,26.8,30.12,NW,324,9.0,15.0,49,0.00,,SKC,0.01,VWS V14.00,2013-03-07 21:42:00,
2013-03-07 16:47:00,44.7,26.2,30.12,NNW,344,9.0,16.0,48,0.00,,SKC,0.01,VWS V14.00,2013-03-07 21:47:00,
2013-03-07 16:52:00,44.6,26.6,30.12,NNW,338,10.0,16.0,49,0.00,,SKC,0.01,VWS V14.00,2013-03-07 21:52:00,
2013-03-07 16:57:00,44.5,26.5,30.12,NNW,327,9.0,13.0,49,0.00,,SKC,0.01,VWS V14.00,2013-03-07 21:57:00,
2013-03-07 17:00:00,42.5,25.7,30.14,NNW,340,4.0,18.0,51,0.00,,SKC,0.01,VWS V14.00,2013-03-07 22:00:00,
2013-03-07 17:02:00,44.4,26.5,30.12,NNW,346,6.0,15.0,49,0.00,,SKC,0.01,VWS V14.00,2013-03-07 22:02:00,
2013-03-07 17:07:00,44.2,26.3,30.12,NNW,340,9.0,15.0,49,0.00,,SKC,0.01,VWS V14.00,2013-03-07 22:07:00,
2013-03-07 17:12:00,44.0,27.0,30.13,NNW,345,4.0,15.0,51,0.00,,SKC,0.01,VWS V14.00,2013-03-07 22:12:00,
2013-03-07 17:17:00,43.8,26.4,30.13,NW,313,11.0,15.0,50,0.00,,SKC,0.01,VWS V14.00,2013-03-07 22:17:00,
2013-03-07 17:22:00,43.6,26.2,30.13,NNW,344,5.0,15.0,50,0.00,,SKC,0.01,VWS V14.00,2013-03-07 22:22:00,
2013-03-07 17:27:00,43.5,26.6,30.13,NNW,345,9.0,12.0,51,0.00,,SKC,0.01,VWS V14.00,2013-03-07 22:27:00,
2013-03-07 17:30:00,41.4,24.6,30.15,NNE,15,5.0,15.0,51,0.00,,SKC,0.01,VWS V14.00,2013-03-07 22:30:00,
2013-03-07 17:32:00,43.3,26.4,30.14,NNW,340,5.0,12.0,51,0.00,,SKC,0.01,VWS V14.00,2013-03-07 22:32:00,
2013-03-07 17:37:00,43.1,26.2,30.14,North,355,8.0,13.0,51,0.00,,SKC,0.01,VWS V14.00,2013-03-07 22:37:00,
2013-03-07 17:42:00,43.0,26.1,30.14,North,355,6.0,13.0,51,0.00,,SKC,0.01,VWS V14.00,2013-03-07 22:42:00,
2013-03-07 17:47:00,42.8,25.9,30.14,NNW,331,6.0,18.0,51,0.00,,SKC,0.01,VWS V14.00,2013-03-07 22:47:00,
2013-03-07 17:52:00,42.6,25.3,30.14,North,5,3.0,18.0,50,0.00,,SKC,0.01,VWS V14.00,2013-03-07 22:52:00,
2013-03-07 17:57:00,42.3,25.9,30.15,NW,325,5.0,12.0,52,0.00,,SKC,0.01,VWS V14.00,2013-03-07 22:57:00,
2013-03-07 18:00:00,40.7,24.5,30.16,North,5,4.0,13.0,52,0.00,,SKC,0.01,VWS V14.00,2013-03-07 23:00:00,
2013-03-07 18:02:00,42.0,25.2,30.15,NW,320,9.0,15.0,51,0.00,,SKC,0.01,VWS V14.00,2013-03-07 23:02:00,
2013-03-07 18:07:00,41.9,25.1,30.15,NNW,348,8.0,15.0,51,0.00,,SKC,0.01,VWS V14.00,2013-03-07 23:07:00,
2013-03-07 18:12:00,41.8,25.0,30.15,NW,312,6.0,15.0,51,0.00,,SKC,0.01,VWS V14.00,2013-03-07 23:12:00,
2013-03-07 18:17:00,41.6,24.8,30.15,NNW,345,10.0,15.0,51,0.00,,SKC,0.01,VWS V14.00,2013-03-07 23:17:00,
2013-03-07 18:22:00,41.4,24.6,30.15,NNW,338,5.0,15.0,51,0.00,,SKC,0.01,VWS V14.00,2013-03-07 23:22:00,
2013-03-07 18:27:00,41.3,25.0,30.15,North,360,7.0,10.0,52,0.00,,SKC,0.01,VWS V14.00,2013-03-07 23:27:00,
2013-03-07 18:30:00,40.2,24.9,30.17,North,360,2.0,12.0,54,0.00,,SKC,0.01,VWS V14.00,2013-03-07 23:30:00,
2013-03-07 18:32:00,41.1,24.8,30.16,NNW,339,4.0,10.0,52,0.00,,SKC,0.01,VWS V14.00,2013-03-07 23:32:00,
2013-03-07 18:37:00,41.0,24.7,30.16,North,10,6.0,10.0,52,0.00,,SKC,0.01,VWS V14.00,2013-03-07 23:37:00,
2013-03-07 18:42:00,40.9,24.6,30.16,North,355,7.0,13.0,52,0.00,,SKC,0.01,VWS V14.00,2013-03-07 23:42:00,
2013-03-07 18:47:00,40.9,24.6,30.16,NNE,15,2.0,13.0,52,0.00,,SKC,0.01,VWS V14.00,2013-03-07 23:47:00,
2013-03-07 18:52:00,40.7,24.5,30.16,North,355,5.0,13.0,52,0.00,,SKC,0.01,VWS V14.00,2013-03-07 23:52:00,
2013-03-07 18:57:00,40.7,24.9,30.16,North,9,4.0,9.0,53,0.00,,SKC,0.01,VWS V14.00,2013-03-07 23:57:00,
2013-03-07 19:00:00,40.0,24.7,30.17,North,5,5.0,12.0,54,0.00,,SKC,0.01,VWS V14.00,2013-03-08 00:00:00,
2013-03-07 19:02:00,40.6,24.8,30.16,NNW,336,7.0,12.0,53,0.00,,SKC,0.01,VWS V14.00,2013-03-08 00:02:00,
2013-03-07 19:07:00,40.5,24.7,30.16,NNW,334,5.0,12.0,53,0.00,,SKC,0.01,VWS V14.00,2013-03-08 00:07:00,
2013-03-07 19:13:00,40.5,24.7,30.17,NNW,345,6.0,12.0,53,0.00,,SKC,0.01,VWS V14.00,2013-03-08 00:13:00,
2013-03-07 19:18:00,40.4,24.6,30.16,North,355,1.0,12.0,53,0.00,,SKC,0.01,VWS V14.00,2013-03-08 00:18:00,
2013-03-07 19:23:00,40.2,24.5,30.17,North,360,3.0,12.0,53,0.00,,SKC,0.01,VWS V14.00,2013-03-08 00:23:00,
2013-03-07 19:28:00,40.1,24.8,30.17,North,351,1.0,7.0,54,0.00,,SKC,0.01,VWS V14.00,2013-03-08 00:28:00,
2013-03-07 19:30:00,40.0,24.7,30.17,NNW,346,5.0,13.0,54,0.00,,SKC,0.01,VWS V14.00,2013-03-08 00:30:00,
2013-03-07 19:33:00,40.0,24.7,30.17,NW,316,6.0,11.0,54,0.00,,SKC,0.01,VWS V14.00,2013-03-08 00:33:00,
2013-03-07 19:38:00,40.1,24.8,30.17,North,360,3.0,12.0,54,0.00,,SKC,0.01,VWS V14.00,2013-03-08 00:38:00,
2013-03-07 19:43:00,40.0,24.7,30.17,North,5,7.0,12.0,54,0.00,,SKC,0.01,VWS V14.00,2013-03-08 00:43:00,
2013-03-07 19:48:00,40.0,24.7,30.17,NNW,345,8.0,12.0,54,0.00,,SKC,0.01,VWS V14.00,2013-03-08 00:48:00,
2013-03-07 19:53:00,40.0,24.7,30.17,North,355,4.0,12.0,54,0.00,,SKC,0.01,VWS V14.00,2013-03-08 00:53:00,
2013-03-07 19:58:00,40.1,24.8,30.16,North,9,1.0,12.0,54,0.00,,SKC,0.01,VWS V14.00,2013-03-08 00:58:00,
2013-03-07 20:00:00,40.1,24.8,30.17,WNW,295,5.0,19.0,54,0.00,,SKC,0.01,VWS V14.00,2013-03-08 01:00:00,
2013-03-07 20:03:00,40.0,24.7,30.16,NNE,13,4.0,12.0,54,0.00,,SKC,0.01,VWS V14.00,2013-03-08 01:03:00,
2013-03-07 20:08:00,39.9,24.6,30.16,NNE,13,3.0,12.0,54,0.00,,SKC,0.01,VWS V14.00,2013-03-08 01:08:00,
2013-03-07 20:13:00,39.9,24.6,30.16,North,360,6.0,12.0,54,0.00,,SKC,0.01,VWS V14.00,2013-03-08 01:13:00,
2013-03-07 20:18:00,39.9,24.6,30.16,NNW,335,7.0,12.0,54,0.00,,SKC,0.01,VWS V14.00,2013-03-08 01:18:00,
2013-03-07 20:23:00,40.0,24.7,30.17,NNW,333,6.0,13.0,54,0.00,,SKC,0.01,VWS V14.00,2013-03-08 01:23:00,
2013-03-07 20:28:00,39.9,24.6,30.17,NNW,338,8.0,10.0,54,0.00,,SKC,0.01,VWS V14.00,2013-03-08 01:28:00,
2013-03-07 20:30:00,39.9,25.1,30.16,North,10,6.0,16.0,55,0.00,,SKC,0.01,VWS V14.00,2013-03-08 01:30:00,
2013-03-07 20:33:00,39.8,24.5,30.17,NNW,347,5.0,14.0,54,0.00,,SKC,0.01,VWS V14.00,2013-03-08 01:33:00,
2013-03-07 20:38:00,40.1,24.8,30.17,North,351,6.0,14.0,54,0.00,,SKC,0.01,VWS V14.00,2013-03-08 01:38:00,
2013-03-07 20:43:00,40.1,24.8,30.17,NNE,13,5.0,14.0,54,0.00,,SKC,0.01,VWS V14.00,2013-03-08 01:43:00,
2013-03-07 20:48:00,40.2,24.9,30.17,North,11,4.0,19.0,54,0.00,,SKC,0.01,VWS V14.00,2013-03-08 01:48:00,
2013-03-07 20:53:00,40.1,24.8,30.17,ENE,71,4.0,19.0,54,0.00,,SKC,0.01,VWS V14.00,2013-03-08 01:53:00,
2013-03-07 20:58:00,40.2,24.9,30.17,NNW,348,6.0,13.0,54,0.00,,SKC,0.01,VWS V14.00,2013-03-08 01:58:00,
2013-03-07 21:00:00,39.9,25.5,30.17,NNW,340,6.0,16.0,56,0.00,,SKC,0.01,VWS V14.00,2013-03-08 02:00:00,
2013-03-07 21:03:00,40.1,25.2,30.17,NNW,346,8.0,13.0,55,0.00,,SKC,0.01,VWS V14.00,2013-03-08 02:03:00,
2013-03-07 21:08:00,40.0,25.6,30.17,North,350,4.0,15.0,56,0.00,,SKC,0.01,VWS V14.00,2013-03-08 02:08:00,
2013-03-07 21:13:00,39.9,25.1,30.17,North,10,5.0,15.0,55,0.00,,SKC,0.01,VWS V14.00,2013-03-08 02:13:00,
2013-03-07 21:18:00,39.9,25.1,30.17,NNW,336,10.0,15.0,55,0.00,,SKC,0.01,VWS V14.00,2013-03-08 02:18:00,
2013-03-07 21:23:00,39.9,25.1,30.16,NNW,329,7.0,16.0,55,0.00,,SKC,0.01,VWS V14.00,2013-03-08 02:23:00,
2013-03-07 21:28:00,39.9,25.5,30.17,NNW,337,2.0,10.0,56,0.00,,SKC,0.01,VWS V14.00,2013-03-08 02:28:00,
2013-03-07 21:30:00,39.6,25.6,30.16,NNE,23,1.0,17.0,57,0.00,,SKC,0.01,VWS V14.00,2013-03-08 02:30:00,
2013-03-07 21:33:00,40.0,25.1,30.16,NNW,336,9.0,14.0,55,0.00,,SKC,0.01,VWS V14.00,2013-03-08 02:33:00,
2013-03-07 21:38:00,40.0,25.6,30.17,North,5,4.0,14.0,56,0.00,,SKC,0.01,VWS V14.00,2013-03-08 02:38:00,
2013-03-07 21:43:00,40.0,25.6,30.17,NNW,327,14.0,14.0,56,0.00,,SKC,0.01,VWS V14.00,2013-03-08 02:43:00,
2013-03-07 21:48:00,40.0,25.6,30.16,NW,305,11.0,16.0,56,0.00,,SKC,0.01,VWS V14.00,2013-03-08 02:48:00,
2013-03-07 21:53:00,39.9,25.5,30.17,NNW,338,4.0,16.0,56,0.00,,SKC,0.01,VWS V14.00,2013-03-08 02:53:00,
2013-03-07 21:58:00,39.8,25.4,30.17,North,355,6.0,12.0,56,0.00,,SKC,0.01,VWS V14.00,2013-03-08 02:58:00,
2013-03-07 22:00:00,39.1,25.6,30.16,NNW,348,7.0,15.0,58,0.00,,SKC,0.01,VWS V14.00,2013-03-08 03:00:00,
2013-03-07 22:03:00,39.8,25.4,30.17,NNE,14,2.0,17.0,56,0.00,,SKC,0.01,VWS V14.00,2013-03-08 03:03:00,
2013-03-07 22:08:00,39.8,25.8,30.16,North,10,5.0,17.0,57,0.00,,SKC,0.01,VWS V14.00,2013-03-08 03:08:00,
2013-03-07 22:13:00,39.8,25.8,30.16,NNW,330,7.0,17.0,57,0.00,,SKC,0.01,VWS V14.00,2013-03-08 03:13:00,
2013-03-07 22:18:00,39.7,25.7,30.16,NNE,17,7.0,17.0,57,0.00,,SKC,0.01,VWS V14.00,2013-03-08 03:18:00,
2013-03-07 22:23:00,39.7,25.7,30.16,NE,44,4.0,17.0,57,0.00,,SKC,0.01,VWS V14.00,2013-03-08 03:23:00,
2013-03-07 22:28:00,39.5,25.5,30.16,NNW,331,6.0,9.0,57,0.00,,SKC,0.01,VWS V14.00,2013-03-08 03:28:00,
2013-03-07 22:30:00,37.7,25.1,30.17,NNW,348,4.0,11.0,60,0.00,,SKC,0.01,VWS V14.00,2013-03-08 03:30:00,
2013-03-07 22:33:00,39.4,25.9,30.16,NNW,338,4.0,9.0,58,0.00,,SKC,0.01,VWS V14.00,2013-03-08 03:33:00,
2013-03-07 22:38:00,39.3,25.4,30.16,NNW,343,6.0,12.0,57,0.00,,SKC,0.01,VWS V14.00,2013-03-08 03:38:00,
2013-03-07 22:43:00,39.3,25.8,30.16,NNW,342,9.0,12.0,58,0.00,,SKC,0.01,VWS V14.00,2013-03-08 03:43:00,
2013-03-07 22:48:00,39.2,25.7,30.16,NNW,348,9.0,15.0,58,0.00,,SKC,0.01,VWS V14.00,2013-03-08 03:48:00,
2013-03-07 22:53:00,39.1,25.6,30.16,North,5,5.0,15.0,58,0.00,,SKC,0.01,VWS V14.00,2013-03-08 03:53:00,
2013-03-07 22:58:00,38.9,25.8,30.16,North,355,2.0,9.0,59,0.00,,SKC,0.01,VWS V14.00,2013-03-08 03:58:00,
2013-03-07 23:00:00,37.1,23.3,30.16,NNW,333,6.0,16.0,57,0.00,,SKC,0.00,VWS V14.00,2013-03-08 04:00:00,
2013-03-07 23:03:00,38.6,25.1,30.16,NW,325,2.0,9.0,58,0.00,,SKC,0.01,VWS V14.00,2013-03-08 04:03:00,
2013-03-07 23:08:00,38.4,25.3,30.16,North,355,7.0,9.0,59,0.00,,SKC,0.01,VWS V14.00,2013-03-08 04:08:00,
2013-03-07 23:13:00,38.2,25.1,30.16,North,9,7.0,11.0,59,0.00,,SKC,0.01,VWS V14.00,2013-03-08 04:13:00,
2013-03-07 23:18:00,38.0,25.0,30.16,North,355,4.0,11.0,59,0.00,,SKC,0.01,VWS V14.00,2013-03-08 04:18:00,
2013-03-07 23:23:00,37.7,25.1,30.17,North,355,5.0,11.0,60,0.00,,SKC,0.01,VWS V14.00,2013-03-08 04:23:00,
2013-03-07 23:28:00,37.5,24.9,30.16,NNW,343,4.0,13.0,60,0.00,,SKC,0.01,VWS V14.00,2013-03-08 04:28:00,
2013-03-07 23:30:00,36.3,23.4,30.16,NW,315,5.0,15.0,59,0.00,,SKC,0.00,VWS V14.00,2013-03-08 04:30:00,
2013-03-07 23:33:00,37.3,24.7,30.16,NNW,336,7.0,13.0,60,0.00,,SKC,0.01,VWS V14.00,2013-03-08 04:33:00,
2013-03-07 23:38:00,37.4,24.0,30.16,NW,304,8.0,16.0,58,0.00,,SKC,0.01,VWS V14.00,2013-03-08 04:38:00,
2013-03-07 23:43:00,37.4,23.6,30.16,NNW,344,7.0,16.0,57,0.00,,SKC,0.01,VWS V14.00,2013-03-08 04:43:00,
2013-03-07 23:48:00,37.3,23.5,30.16,NW,324,8.0,16.0,57,0.00,,SKC,0.01,VWS V14.00,2013-03-08 04:48:00,
2013-03-07 23:53:00,37.1,23.3,30.16,North,355,5.0,16.0,57,0.00,,SKC,0.01,VWS V14.00,2013-03-08 04:53:00,
2013-03-07 23:58:00,37.0,23.2,30.16,NNW,336,2.0,12.0,57,0.00,,SKC,0.00,VWS V14.00,2013-03-08 04:58:00,